sensor_id;sensor_type;location;lat;lon;timestamp;P1;durP1;ratioP1;P2;durP2;ratioP2
24729;SDS011;12832;52.392;13.066;2023-06-14T03:59:26;0.80;;;0.77;;
24729;SDS011;12832;52.392;13.066;2023-06-14T04:01:53;2.40;;;0.85;;
24729;SDS011;12832;52.392;13.066;2023-06-14T04:04:20;0.90;;;0.63;;
24729;SDS011;12832;52.392;13.066;2023-06-14T04:06:46;2.40;;;0.88;;
24729;SDS011;12832;52.392;13.066;2023-06-14T04:09:13;1.08;;;0.70;;
24729;SDS011;12832;52.392;13.066;2023-06-14T04:11:40;0.77;;;0.68;;
24729;SDS011;12832;52.392;13.066;2023-06-14T04:14:06;0.88;;;0.52;;
24729;SDS011;12832;52.392;13.066;2023-06-14T04:16:32;0.73;;;0.70;;
24729;SDS011;12832;52.392;13.066;2023-06-14T04:18:58;0.60;;;0.60;;
24729;SDS011;12832;52.392;13.066;2023-06-14T04:21:25;0.80;;;0.75;;
24729;SDS011;12832;52.392;13.066;2023-06-14T04:23:53;1.50;;;0.60;;
24729;SDS011;12832;52.392;13.066;2023-06-14T04:26:21;0.88;;;0.77;;
24729;SDS011;12832;52.392;13.066;2023-06-14T04:28:52;0.73;;;0.73;;
24729;SDS011;12832;52.392;13.066;2023-06-14T04:31:22;0.50;;;0.50;;
24729;SDS011;12832;52.392;13.066;2023-06-14T04:33:51;0.50;;;0.50;;
24729;SDS011;12832;52.392;13.066;2023-06-14T04:36:19;0.65;;;0.65;;
24729;SDS011;12832;52.392;13.066;2023-06-14T04:38:46;0.60;;;0.60;;
24729;SDS011;12832;52.392;13.066;2023-06-14T04:41:12;0.60;;;0.60;;
24729;SDS011;12832;52.392;13.066;2023-06-14T04:43:38;0.80;;;0.80;;
24729;SDS011;12832;52.392;13.066;2023-06-14T04:46:05;0.60;;;0.60;;
24729;SDS011;12832;52.392;13.066;2023-06-14T04:48:39;0.93;;;0.52;;
24729;SDS011;12832;52.392;13.066;2023-06-14T04:51:08;0.85;;;0.50;;
24729;SDS011;12832;52.392;13.066;2023-06-14T04:53:34;0.82;;;0.60;;
24729;SDS011;12832;52.392;13.066;2023-06-14T04:56:01;0.60;;;0.60;;
24729;SDS011;12832;52.392;13.066;2023-06-14T04:58:28;0.70;;;0.50;;
24729;SDS011;12832;52.392;13.066;2023-06-14T05:00:55;1.55;;;0.75;;
24729;SDS011;12832;52.392;13.066;2023-06-14T05:03:25;0.52;;;0.40;;
24729;SDS011;12832;52.392;13.066;2023-06-14T05:05:52;0.55;;;0.55;;
24729;SDS011;12832;52.392;13.066;2023-06-14T05:08:19;0.75;;;0.75;;
24729;SDS011;12832;52.392;13.066;2023-06-14T05:10:49;1.05;;;0.95;;
24729;SDS011;12832;52.392;13.066;2023-06-14T05:13:15;0.90;;;0.90;;
24729;SDS011;12832;52.392;13.066;2023-06-14T05:15:42;1.23;;;1.10;;
24729;SDS011;12832;52.392;13.066;2023-06-14T05:18:09;1.48;;;1.27;;
24729;SDS011;12832;52.392;13.066;2023-06-14T05:20:35;1.85;;;1.30;;
24729;SDS011;12832;52.392;13.066;2023-06-14T05:23:03;1.58;;;1.48;;
24729;SDS011;12832;52.392;13.066;2023-06-14T05:25:29;2.58;;;1.50;;
24729;SDS011;12832;52.392;13.066;2023-06-14T05:27:55;3.63;;;1.52;;
24729;SDS011;12832;52.392;13.066;2023-06-14T05:30:21;2.10;;;1.90;;
24729;SDS011;12832;52.392;13.066;2023-06-14T05:32:48;2.85;;;1.80;;
24729;SDS011;12832;52.392;13.066;2023-06-14T05:35:14;1.83;;;1.50;;
24729;SDS011;12832;52.392;13.066;2023-06-14T05:37:41;3.67;;;2.20;;
24729;SDS011;12832;52.392;13.066;2023-06-14T05:40:07;2.33;;;2.00;;
24729;SDS011;12832;52.392;13.066;2023-06-14T05:42:34;2.00;;;1.90;;
24729;SDS011;12832;52.392;13.066;2023-06-14T05:45:00;2.30;;;2.10;;
24729;SDS011;12832;52.392;13.066;2023-06-14T05:47:27;2.20;;;2.00;;
24729;SDS011;12832;52.392;13.066;2023-06-14T05:49:53;2.35;;;2.15;;
24729;SDS011;12832;52.392;13.066;2023-06-14T05:52:20;2.42;;;2.10;;
24729;SDS011;12832;52.392;13.066;2023-06-14T05:54:47;2.53;;;1.92;;
24729;SDS011;12832;52.392;13.066;2023-06-14T05:57:13;2.13;;;1.83;;
24729;SDS011;12832;52.392;13.066;2023-06-14T05:59:39;1.90;;;1.80;;
24729;SDS011;12832;52.392;13.066;2023-06-14T06:02:05;2.08;;;1.80;;
24729;SDS011;12832;52.392;13.066;2023-06-14T06:04:32;2.38;;;1.90;;
24729;SDS011;12832;52.392;13.066;2023-06-14T06:06:58;2.53;;;1.70;;
24729;SDS011;12832;52.392;13.066;2023-06-14T06:09:24;3.58;;;2.05;;
24729;SDS011;12832;52.392;13.066;2023-06-14T06:11:50;3.35;;;2.33;;
24729;SDS011;12832;52.392;13.066;2023-06-14T06:14:19;2.85;;;1.80;;
24729;SDS011;12832;52.392;13.066;2023-06-14T06:16:46;3.38;;;2.00;;
24729;SDS011;12832;52.392;13.066;2023-06-14T06:19:12;1.70;;;1.60;;
24729;SDS011;12832;52.392;13.066;2023-06-14T06:21:38;3.15;;;2.10;;
24729;SDS011;12832;52.392;13.066;2023-06-14T06:24:05;3.05;;;2.28;;
24729;SDS011;12832;52.392;13.066;2023-06-14T06:26:32;3.28;;;2.10;;
24729;SDS011;12832;52.392;13.066;2023-06-14T06:28:58;2.70;;;2.22;;
24729;SDS011;12832;52.392;13.066;2023-06-14T06:31:24;2.13;;;1.92;;
24729;SDS011;12832;52.392;13.066;2023-06-14T06:33:56;2.47;;;2.20;;
24729;SDS011;12832;52.392;13.066;2023-06-14T06:36:22;3.78;;;2.20;;
24729;SDS011;12832;52.392;13.066;2023-06-14T06:38:48;2.50;;;2.30;;
24729;SDS011;12832;52.392;13.066;2023-06-14T06:41:14;2.30;;;2.10;;
24729;SDS011;12832;52.392;13.066;2023-06-14T06:43:41;2.33;;;2.10;;
24729;SDS011;12832;52.392;13.066;2023-06-14T06:46:07;2.33;;;1.95;;
24729;SDS011;12832;52.392;13.066;2023-06-14T06:48:34;6.15;;;2.40;;
24729;SDS011;12832;52.392;13.066;2023-06-14T06:51:00;2.40;;;2.13;;
24729;SDS011;12832;52.392;13.066;2023-06-14T06:53:26;2.83;;;2.50;;
24729;SDS011;12832;52.392;13.066;2023-06-14T06:56:11;3.58;;;2.38;;
24729;SDS011;12832;52.392;13.066;2023-06-14T06:58:38;2.30;;;2.10;;
24729;SDS011;12832;52.392;13.066;2023-06-14T07:01:04;2.40;;;1.98;;
24729;SDS011;12832;52.392;13.066;2023-06-14T07:03:30;3.38;;;2.17;;
24729;SDS011;12832;52.392;13.066;2023-06-14T07:05:56;3.50;;;2.28;;
24729;SDS011;12832;52.392;13.066;2023-06-14T07:08:23;4.68;;;2.38;;
24729;SDS011;12832;52.392;13.066;2023-06-14T07:10:50;2.55;;;1.83;;
24729;SDS011;12832;52.392;13.066;2023-06-14T07:13:16;2.70;;;2.28;;
24729;SDS011;12832;52.392;13.066;2023-06-14T07:15:42;2.45;;;2.10;;
24729;SDS011;12832;52.392;13.066;2023-06-14T07:18:08;2.30;;;1.85;;
24729;SDS011;12832;52.392;13.066;2023-06-14T07:20:35;3.10;;;1.90;;
24729;SDS011;12832;52.392;13.066;2023-06-14T07:23:03;3.13;;;2.45;;
24729;SDS011;12832;52.392;13.066;2023-06-14T07:25:31;2.30;;;2.08;;
24729;SDS011;12832;52.392;13.066;2023-06-14T07:27:57;5.22;;;2.05;;
24729;SDS011;12832;52.392;13.066;2023-06-14T07:30:23;2.42;;;2.22;;
24729;SDS011;12832;52.392;13.066;2023-06-14T07:32:52;2.28;;;2.08;;
24729;SDS011;12832;52.392;13.066;2023-06-14T07:35:19;3.35;;;2.70;;
24729;SDS011;12832;52.392;13.066;2023-06-14T07:37:45;3.90;;;2.30;;
24729;SDS011;12832;52.392;13.066;2023-06-14T07:40:12;3.90;;;2.60;;
24729;SDS011;12832;52.392;13.066;2023-06-14T07:42:39;3.45;;;2.10;;
24729;SDS011;12832;52.392;13.066;2023-06-14T07:45:05;2.30;;;2.10;;
24729;SDS011;12832;52.392;13.066;2023-06-14T07:47:32;2.40;;;2.20;;
24729;SDS011;12832;52.392;13.066;2023-06-14T07:49:59;2.58;;;2.38;;
24729;SDS011;12832;52.392;13.066;2023-06-14T07:52:25;3.97;;;2.00;;
24729;SDS011;12832;52.392;13.066;2023-06-14T07:54:52;2.53;;;2.30;;
24729;SDS011;12832;52.392;13.066;2023-06-14T07:57:18;4.10;;;2.17;;
24729;SDS011;12832;52.392;13.066;2023-06-14T07:59:46;3.72;;;2.55;;
24729;SDS011;12832;52.392;13.066;2023-06-14T08:02:12;2.83;;;2.13;;
24729;SDS011;12832;52.392;13.066;2023-06-14T08:04:38;2.88;;;2.20;;
24729;SDS011;12832;52.392;13.066;2023-06-14T08:07:04;2.55;;;2.35;;
24729;SDS011;12832;52.392;13.066;2023-06-14T08:09:33;5.22;;;2.10;;
24729;SDS011;12832;52.392;13.066;2023-06-14T08:12:00;2.20;;;1.75;;
24729;SDS011;12832;52.392;13.066;2023-06-14T08:14:26;3.97;;;2.50;;
24729;SDS011;12832;52.392;13.066;2023-06-14T08:16:53;2.88;;;2.00;;
24729;SDS011;12832;52.392;13.066;2023-06-14T08:19:19;2.30;;;2.10;;
24729;SDS011;12832;52.392;13.066;2023-06-14T08:21:45;3.83;;;2.17;;
24729;SDS011;12832;52.392;13.066;2023-06-14T08:24:11;2.60;;;2.40;;
24729;SDS011;12832;52.392;13.066;2023-06-14T08:26:38;2.45;;;2.15;;
24729;SDS011;12832;52.392;13.066;2023-06-14T08:29:05;2.50;;;2.30;;
24729;SDS011;12832;52.392;13.066;2023-06-14T08:31:34;3.35;;;2.53;;
24729;SDS011;12832;52.392;13.066;2023-06-14T08:34:01;2.75;;;2.30;;
24729;SDS011;12832;52.392;13.066;2023-06-14T08:36:31;2.67;;;2.00;;
24729;SDS011;12832;52.392;13.066;2023-06-14T08:38:57;2.42;;;2.22;;
24729;SDS011;12832;52.392;13.066;2023-06-14T08:41:23;4.45;;;2.20;;
24729;SDS011;12832;52.392;13.066;2023-06-14T08:43:55;3.53;;;2.20;;
24729;SDS011;12832;52.392;13.066;2023-06-14T08:46:22;2.90;;;2.20;;
24729;SDS011;12832;52.392;13.066;2023-06-14T08:48:53;2.97;;;2.40;;
24729;SDS011;12832;52.392;13.066;2023-06-14T08:51:22;4.38;;;2.28;;
24729;SDS011;12832;52.392;13.066;2023-06-14T08:53:53;3.95;;;2.45;;
24729;SDS011;12832;52.392;13.066;2023-06-14T08:56:24;2.55;;;1.77;;
24729;SDS011;12832;52.392;13.066;2023-06-14T08:58:53;2.55;;;2.33;;
24729;SDS011;12832;52.392;13.066;2023-06-14T09:01:20;2.78;;;2.05;;
24729;SDS011;12832;52.392;13.066;2023-06-14T09:03:47;3.92;;;1.90;;
24729;SDS011;12832;52.392;13.066;2023-06-14T09:06:14;2.50;;;2.28;;
24729;SDS011;12832;52.392;13.066;2023-06-14T09:08:45;4.45;;;2.35;;
24729;SDS011;12832;52.392;13.066;2023-06-14T09:11:13;2.10;;;1.90;;
24729;SDS011;12832;52.392;13.066;2023-06-14T09:13:40;2.00;;;1.80;;
24729;SDS011;12832;52.392;13.066;2023-06-14T09:16:07;4.10;;;1.92;;
24729;SDS011;12832;52.392;13.066;2023-06-14T09:18:38;2.85;;;1.90;;
24729;SDS011;12832;52.392;13.066;2023-06-14T09:21:07;3.53;;;1.90;;
24729;SDS011;12832;52.392;13.066;2023-06-14T09:23:37;5.10;;;2.00;;
24729;SDS011;12832;52.392;13.066;2023-06-14T09:26:06;4.35;;;2.13;;
24729;SDS011;12832;52.392;13.066;2023-06-14T09:28:45;5.38;;;2.13;;
24729;SDS011;12832;52.392;13.066;2023-06-14T09:31:13;3.35;;;1.90;;
24729;SDS011;12832;52.392;13.066;2023-06-14T09:33:42;4.15;;;2.13;;
24729;SDS011;12832;52.392;13.066;2023-06-14T09:36:21;3.53;;;2.38;;
24729;SDS011;12832;52.392;13.066;2023-06-14T09:38:52;5.57;;;2.17;;
24729;SDS011;12832;52.392;13.066;2023-06-14T09:41:34;2.72;;;1.98;;
24729;SDS011;12832;52.392;13.066;2023-06-14T09:44:03;3.65;;;2.30;;
24729;SDS011;12832;52.392;13.066;2023-06-14T09:46:36;4.03;;;2.20;;
24729;SDS011;12832;52.392;13.066;2023-06-14T09:49:04;2.60;;;2.22;;
24729;SDS011;12832;52.392;13.066;2023-06-14T09:51:31;2.22;;;1.80;;
24729;SDS011;12832;52.392;13.066;2023-06-14T09:54:01;2.13;;;1.95;;
24729;SDS011;12832;52.392;13.066;2023-06-14T09:56:37;4.20;;;2.08;;
24729;SDS011;12832;52.392;13.066;2023-06-14T09:59:06;3.78;;;2.08;;
24729;SDS011;12832;52.392;13.066;2023-06-14T10:01:36;2.63;;;2.00;;
24729;SDS011;12832;52.392;13.066;2023-06-14T10:04:10;2.20;;;2.00;;
24729;SDS011;12832;52.392;13.066;2023-06-14T10:06:39;2.53;;;1.70;;
24729;SDS011;12832;52.392;13.066;2023-06-14T10:09:07;3.17;;;2.08;;
24729;SDS011;12832;52.392;13.066;2023-06-14T10:11:35;5.22;;;2.30;;
24729;SDS011;12832;52.392;13.066;2023-06-14T10:14:03;2.10;;;2.00;;
24729;SDS011;12832;52.392;13.066;2023-06-14T10:16:37;4.30;;;2.58;;
24729;SDS011;12832;52.392;13.066;2023-06-14T10:22:09;4.60;;;2.33;;
24729;SDS011;12832;52.392;13.066;2023-06-14T10:24:43;3.63;;;2.10;;
24729;SDS011;12832;52.392;13.066;2023-06-14T10:27:14;2.83;;;2.53;;
24729;SDS011;12832;52.392;13.066;2023-06-14T10:32:25;4.07;;;2.25;;
24729;SDS011;12832;52.392;13.066;2023-06-14T10:37:29;2.63;;;2.08;;
24729;SDS011;12832;52.392;13.066;2023-06-14T10:39:56;3.90;;;1.98;;
24729;SDS011;12832;52.392;13.066;2023-06-14T10:42:23;2.60;;;2.40;;
24729;SDS011;12832;52.392;13.066;2023-06-14T10:45:00;2.30;;;2.10;;
24729;SDS011;12832;52.392;13.066;2023-06-14T10:47:30;4.03;;;2.20;;
24729;SDS011;12832;52.392;13.066;2023-06-14T10:50:07;2.65;;;2.45;;
24729;SDS011;12832;52.392;13.066;2023-06-14T10:52:39;2.72;;;2.17;;
24729;SDS011;12832;52.392;13.066;2023-06-14T10:57:49;3.20;;;2.20;;
24729;SDS011;12832;52.392;13.066;2023-06-14T11:00:19;4.15;;;2.10;;
24729;SDS011;12832;52.392;13.066;2023-06-14T11:05:52;2.45;;;2.15;;
24729;SDS011;12832;52.392;13.066;2023-06-14T11:11:08;2.15;;;1.95;;
24729;SDS011;12832;52.392;13.066;2023-06-14T11:13:38;3.47;;;2.30;;
24729;SDS011;12832;52.392;13.066;2023-06-14T11:16:13;2.08;;;1.73;;
24729;SDS011;12832;52.392;13.066;2023-06-14T11:18:41;3.35;;;2.10;;
24729;SDS011;12832;52.392;13.066;2023-06-14T11:21:08;3.53;;;2.05;;
24729;SDS011;12832;52.392;13.066;2023-06-14T11:23:34;2.10;;;2.00;;
24729;SDS011;12832;52.392;13.066;2023-06-14T11:26:01;2.50;;;2.30;;
24729;SDS011;12832;52.392;13.066;2023-06-14T11:28:37;3.45;;;2.22;;
24729;SDS011;12832;52.392;13.066;2023-06-14T11:31:07;4.55;;;2.03;;
24729;SDS011;12832;52.392;13.066;2023-06-14T11:33:34;4.03;;;2.13;;
24729;SDS011;12832;52.392;13.066;2023-06-14T11:36:03;2.28;;;2.08;;
24729;SDS011;12832;52.392;13.066;2023-06-14T11:38:37;2.58;;;1.88;;
24729;SDS011;12832;52.392;13.066;2023-06-14T11:41:03;2.22;;;2.03;;
24729;SDS011;12832;52.392;13.066;2023-06-14T11:43:29;2.33;;;2.10;;
24729;SDS011;12832;52.392;13.066;2023-06-14T11:45:58;4.10;;;2.60;;
24729;SDS011;12832;52.392;13.066;2023-06-14T11:48:37;2.53;;;2.10;;
24729;SDS011;12832;52.392;13.066;2023-06-14T11:51:05;2.30;;;2.00;;
24729;SDS011;12832;52.392;13.066;2023-06-14T11:53:31;2.78;;;2.28;;
24729;SDS011;12832;52.392;13.066;2023-06-14T11:55:58;5.68;;;2.50;;
24729;SDS011;12832;52.392;13.066;2023-06-14T11:58:25;3.08;;;1.90;;
24729;SDS011;12832;52.392;13.066;2023-06-14T12:00:53;2.63;;;2.10;;
24729;SDS011;12832;52.392;13.066;2023-06-14T12:03:23;4.28;;;2.50;;
24729;SDS011;12832;52.392;13.066;2023-06-14T12:06:06;3.95;;;2.03;;
24729;SDS011;12832;52.392;13.066;2023-06-14T12:08:37;3.55;;;2.00;;
24729;SDS011;12832;52.392;13.066;2023-06-14T12:11:06;5.35;;;2.53;;
24729;SDS011;12832;52.392;13.066;2023-06-14T12:13:39;3.35;;;1.90;;
24729;SDS011;12832;52.392;13.066;2023-06-14T12:16:07;2.55;;;2.03;;
24729;SDS011;12832;52.392;13.066;2023-06-14T12:18:35;2.67;;;2.00;;
24729;SDS011;12832;52.392;13.066;2023-06-14T12:21:08;2.75;;;1.98;;
24729;SDS011;12832;52.392;13.066;2023-06-14T12:23:53;2.35;;;2.13;;
24729;SDS011;12832;52.392;13.066;2023-06-14T12:26:20;3.35;;;2.55;;
24729;SDS011;12832;52.392;13.066;2023-06-14T12:28:47;2.85;;;2.10;;
24729;SDS011;12832;52.392;13.066;2023-06-14T12:31:14;2.00;;;1.80;;
24729;SDS011;12832;52.392;13.066;2023-06-14T12:33:42;4.72;;;2.60;;
24729;SDS011;12832;52.392;13.066;2023-06-14T12:36:09;3.95;;;1.98;;
24729;SDS011;12832;52.392;13.066;2023-06-14T12:38:36;2.63;;;2.00;;
24729;SDS011;12832;52.392;13.066;2023-06-14T12:41:03;4.15;;;2.40;;
24729;SDS011;12832;52.392;13.066;2023-06-14T12:43:30;3.15;;;2.50;;
24729;SDS011;12832;52.392;13.066;2023-06-14T12:45:56;3.10;;;1.98;;
24729;SDS011;12832;52.392;13.066;2023-06-14T12:48:22;3.53;;;2.28;;
24729;SDS011;12832;52.392;13.066;2023-06-14T12:50:48;2.58;;;2.38;;
24729;SDS011;12832;52.392;13.066;2023-06-14T12:53:15;3.00;;;2.40;;
24729;SDS011;12832;52.392;13.066;2023-06-14T12:55:41;3.70;;;2.10;;
24729;SDS011;12832;52.392;13.066;2023-06-14T12:58:08;3.50;;;2.45;;
24729;SDS011;12832;52.392;13.066;2023-06-14T13:00:34;4.25;;;2.30;;
24729;SDS011;12832;52.392;13.066;2023-06-14T13:03:01;2.95;;;2.17;;
24729;SDS011;12832;52.392;13.066;2023-06-14T13:05:27;4.15;;;2.53;;
24729;SDS011;12832;52.392;13.066;2023-06-14T13:07:53;2.90;;;2.28;;
24729;SDS011;12832;52.392;13.066;2023-06-14T13:10:20;2.88;;;2.47;;
24729;SDS011;12832;52.392;13.066;2023-06-14T13:12:46;2.50;;;2.30;;
24729;SDS011;12832;52.392;13.066;2023-06-14T13:15:12;2.78;;;2.50;;
24729;SDS011;12832;52.392;13.066;2023-06-14T13:17:39;4.13;;;2.08;;
24729;SDS011;12832;52.392;13.066;2023-06-14T13:20:06;3.85;;;2.85;;
24729;SDS011;12832;52.392;13.066;2023-06-14T13:22:34;5.15;;;2.60;;
24729;SDS011;12832;52.392;13.066;2023-06-14T13:25:01;3.33;;;2.30;;
24729;SDS011;12832;52.392;13.066;2023-06-14T13:27:29;2.88;;;2.33;;
24729;SDS011;12832;52.392;13.066;2023-06-14T13:29:55;2.50;;;2.30;;
24729;SDS011;12832;52.392;13.066;2023-06-14T13:32:21;4.43;;;3.13;;
24729;SDS011;12832;52.392;13.066;2023-06-14T13:34:48;2.88;;;2.53;;
24729;SDS011;12832;52.392;13.066;2023-06-14T13:37:15;2.40;;;2.17;;
24729;SDS011;12832;52.392;13.066;2023-06-14T13:39:41;4.55;;;2.92;;
24729;SDS011;12832;52.392;13.066;2023-06-14T13:42:08;4.03;;;2.47;;
24729;SDS011;12832;52.392;13.066;2023-06-14T13:44:34;2.42;;;2.10;;
24729;SDS011;12832;52.392;13.066;2023-06-14T13:47:00;4.15;;;2.78;;
24729;SDS011;12832;52.392;13.066;2023-06-14T13:49:26;3.70;;;2.92;;
24729;SDS011;12832;52.392;13.066;2023-06-14T13:51:53;3.33;;;2.47;;
24729;SDS011;12832;52.392;13.066;2023-06-14T13:54:19;3.33;;;2.50;;
24729;SDS011;12832;52.392;13.066;2023-06-14T13:56:47;3.03;;;2.65;;
24729;SDS011;12832;52.392;13.066;2023-06-14T13:59:14;4.88;;;2.60;;
24729;SDS011;12832;52.392;13.066;2023-06-14T14:01:41;3.97;;;2.70;;
24729;SDS011;12832;52.392;13.066;2023-06-14T14:04:08;4.18;;;3.00;;
24729;SDS011;12832;52.392;13.066;2023-06-14T14:06:34;3.28;;;2.67;;
24729;SDS011;12832;52.392;13.066;2023-06-14T14:09:01;4.57;;;2.70;;
24729;SDS011;12832;52.392;13.066;2023-06-14T14:11:27;6.28;;;2.75;;
24729;SDS011;12832;52.392;13.066;2023-06-14T14:13:53;4.45;;;3.15;;
24729;SDS011;12832;52.392;13.066;2023-06-14T14:16:20;3.47;;;3.17;;
24729;SDS011;12832;52.392;13.066;2023-06-14T14:18:46;3.85;;;2.50;;
24729;SDS011;12832;52.392;13.066;2023-06-14T14:21:13;4.05;;;2.28;;
24729;SDS011;12832;52.392;13.066;2023-06-14T14:23:39;4.50;;;2.60;;
24729;SDS011;12832;52.392;13.066;2023-06-14T14:26:07;2.47;;;2.28;;
24729;SDS011;12832;52.392;13.066;2023-06-14T14:28:33;4.00;;;2.28;;
24729;SDS011;12832;52.392;13.066;2023-06-14T14:31:00;2.75;;;2.20;;
24729;SDS011;12832;52.392;13.066;2023-06-14T14:33:27;3.47;;;2.40;;
24729;SDS011;12832;52.392;13.066;2023-06-14T14:35:53;3.08;;;2.35;;
24729;SDS011;12832;52.392;13.066;2023-06-14T14:38:19;4.30;;;2.17;;
24729;SDS011;12832;52.392;13.066;2023-06-14T14:40:47;3.30;;;2.42;;
24729;SDS011;12832;52.392;13.066;2023-06-14T14:43:13;3.35;;;2.38;;
24729;SDS011;12832;52.392;13.066;2023-06-14T14:45:40;3.75;;;2.40;;
24729;SDS011;12832;52.392;13.066;2023-06-14T14:48:06;2.78;;;2.35;;
24729;SDS011;12832;52.392;13.066;2023-06-14T14:50:32;2.13;;;1.92;;
24729;SDS011;12832;52.392;13.066;2023-06-14T14:52:59;2.50;;;2.00;;
24729;SDS011;12832;52.392;13.066;2023-06-14T14:55:26;2.25;;;2.00;;
24729;SDS011;12832;52.392;13.066;2023-06-14T14:57:52;4.05;;;2.17;;
24729;SDS011;12832;52.392;13.066;2023-06-14T15:00:18;3.22;;;2.03;;
24729;SDS011;12832;52.392;13.066;2023-06-14T15:02:45;2.50;;;2.30;;
24729;SDS011;12832;52.392;13.066;2023-06-14T15:05:11;3.55;;;2.03;;
24729;SDS011;12832;52.392;13.066;2023-06-14T15:07:38;2.58;;;1.60;;
24729;SDS011;12832;52.392;13.066;2023-06-14T15:10:05;2.08;;;1.88;;
24729;SDS011;12832;52.392;13.066;2023-06-14T15:12:32;2.08;;;1.90;;
24729;SDS011;12832;52.392;13.066;2023-06-14T15:14:59;2.40;;;1.90;;
24729;SDS011;12832;52.392;13.066;2023-06-14T15:17:25;1.73;;;1.63;;
24729;SDS011;12832;52.392;13.066;2023-06-14T15:19:52;1.92;;;1.58;;
24729;SDS011;12832;52.392;13.066;2023-06-14T15:22:18;2.72;;;1.70;;
24729;SDS011;12832;52.392;13.066;2023-06-14T15:24:45;1.60;;;1.48;;
24729;SDS011;12832;52.392;13.066;2023-06-14T15:27:15;1.55;;;1.30;;
24729;SDS011;12832;52.392;13.066;2023-06-14T15:29:41;1.60;;;1.50;;
24729;SDS011;12832;52.392;13.066;2023-06-14T15:32:08;1.80;;;1.70;;
24729;SDS011;12832;52.392;13.066;2023-06-14T15:34:34;1.98;;;1.65;;
24729;SDS011;12832;52.392;13.066;2023-06-14T15:37:00;2.35;;;1.50;;
24729;SDS011;12832;52.392;13.066;2023-06-14T15:39:28;1.55;;;1.35;;
24729;SDS011;12832;52.392;13.066;2023-06-14T15:41:57;1.42;;;1.33;;
24729;SDS011;12832;52.392;13.066;2023-06-14T15:44:24;1.55;;;1.45;;
24729;SDS011;12832;52.392;13.066;2023-06-14T15:46:51;1.52;;;1.40;;
24729;SDS011;12832;52.392;13.066;2023-06-14T15:49:17;1.98;;;1.50;;
24729;SDS011;12832;52.392;13.066;2023-06-14T15:51:44;1.33;;;1.23;;
24729;SDS011;12832;52.392;13.066;2023-06-14T15:54:11;1.40;;;1.30;;
24729;SDS011;12832;52.392;13.066;2023-06-14T15:56:37;1.20;;;1.10;;
24729;SDS011;12832;52.392;13.066;2023-06-14T15:59:03;1.60;;;1.48;;
24729;SDS011;12832;52.392;13.066;2023-06-14T16:01:30;1.27;;;1.10;;
24729;SDS011;12832;52.392;13.066;2023-06-14T16:03:56;1.17;;;0.90;;
24729;SDS011;12832;52.392;13.066;2023-06-14T16:06:23;1.25;;;1.10;;
24729;SDS011;12832;52.392;13.066;2023-06-14T16:08:49;2.45;;;1.58;;
24729;SDS011;12832;52.392;13.066;2023-06-14T16:11:16;1.40;;;1.30;;
24729;SDS011;12832;52.392;13.066;2023-06-14T16:13:42;1.88;;;1.67;;
24729;SDS011;12832;52.392;13.066;2023-06-14T16:16:09;1.60;;;1.50;;
24729;SDS011;12832;52.392;13.066;2023-06-14T16:18:35;1.63;;;1.50;;
24729;SDS011;12832;52.392;13.066;2023-06-14T16:21:02;2.75;;;1.38;;
24729;SDS011;12832;52.392;13.066;2023-06-14T16:23:34;2.38;;;1.20;;
24729;SDS011;12832;52.392;13.066;2023-06-14T16:26:00;1.65;;;1.40;;
24729;SDS011;12832;52.392;13.066;2023-06-14T16:28:27;1.58;;;1.30;;
24729;SDS011;12832;52.392;13.066;2023-06-14T16:30:53;1.50;;;1.20;;
24729;SDS011;12832;52.392;13.066;2023-06-14T16:33:19;1.20;;;1.10;;
24729;SDS011;12832;52.392;13.066;2023-06-14T16:35:45;1.83;;;1.25;;
24729;SDS011;12832;52.392;13.066;2023-06-14T16:38:11;2.08;;;1.08;;
24729;SDS011;12832;52.392;13.066;2023-06-14T16:40:38;1.55;;;1.23;;
24729;SDS011;12832;52.392;13.066;2023-06-14T16:43:04;1.50;;;1.20;;
24729;SDS011;12832;52.392;13.066;2023-06-14T16:45:31;1.30;;;1.20;;
24729;SDS011;12832;52.392;13.066;2023-06-14T16:47:57;1.52;;;1.15;;
24729;SDS011;12832;52.392;13.066;2023-06-14T16:50:23;1.65;;;1.40;;
24729;SDS011;12832;52.392;13.066;2023-06-14T16:52:50;0.98;;;0.98;;
24729;SDS011;12832;52.392;13.066;2023-06-14T16:55:16;1.42;;;1.10;;
24729;SDS011;12832;52.392;13.066;2023-06-14T16:57:42;1.27;;;1.17;;
24729;SDS011;12832;52.392;13.066;2023-06-14T17:00:08;1.52;;;1.20;;
24729;SDS011;12832;52.392;13.066;2023-06-14T17:02:35;1.67;;;1.30;;
24729;SDS011;12832;52.392;13.066;2023-06-14T17:05:01;1.38;;;1.08;;
24729;SDS011;12832;52.392;13.066;2023-06-14T17:07:28;1.48;;;1.10;;
24729;SDS011;12832;52.392;13.066;2023-06-14T17:09:54;1.17;;;1.10;;
24729;SDS011;12832;52.392;13.066;2023-06-14T17:12:20;1.85;;;1.50;;
24729;SDS011;12832;52.392;13.066;2023-06-14T17:14:46;1.70;;;1.60;;
24729;SDS011;12832;52.392;13.066;2023-06-14T17:17:16;1.20;;;1.10;;
24729;SDS011;12832;52.392;13.066;2023-06-14T17:19:43;1.85;;;1.10;;
24729;SDS011;12832;52.392;13.066;2023-06-14T17:22:09;1.30;;;1.20;;
24729;SDS011;12832;52.392;13.066;2023-06-14T17:24:38;1.48;;;1.25;;
24729;SDS011;12832;52.392;13.066;2023-06-14T17:27:04;1.75;;;1.30;;
24729;SDS011;12832;52.392;13.066;2023-06-14T17:29:31;1.30;;;1.20;;
24729;SDS011;12832;52.392;13.066;2023-06-14T17:31:57;1.38;;;1.27;;
24729;SDS011;12832;52.392;13.066;2023-06-14T17:34:23;1.20;;;1.10;;
24729;SDS011;12832;52.392;13.066;2023-06-14T17:36:50;1.95;;;1.10;;
24729;SDS011;12832;52.392;13.066;2023-06-14T17:39:17;1.50;;;1.40;;
24729;SDS011;12832;52.392;13.066;2023-06-14T17:41:43;1.13;;;1.02;;
24729;SDS011;12832;52.392;13.066;2023-06-14T17:44:11;1.33;;;1.23;;
24729;SDS011;12832;52.392;13.066;2023-06-14T17:46:38;1.35;;;1.25;;
24729;SDS011;12832;52.392;13.066;2023-06-14T17:49:04;1.38;;;1.10;;
24729;SDS011;12832;52.392;13.066;2023-06-14T17:51:30;1.38;;;1.20;;
24729;SDS011;12832;52.392;13.066;2023-06-14T17:53:56;1.23;;;1.08;;
24729;SDS011;12832;52.392;13.066;2023-06-14T17:56:23;1.00;;;1.00;;
24729;SDS011;12832;52.392;13.066;2023-06-14T17:58:53;1.10;;;1.00;;
24729;SDS011;12832;52.392;13.066;2023-06-14T18:01:21;1.20;;;1.10;;
24729;SDS011;12832;52.392;13.066;2023-06-14T18:03:48;1.20;;;1.10;;
24729;SDS011;12832;52.392;13.066;2023-06-14T18:06:14;1.35;;;1.25;;
24729;SDS011;12832;52.392;13.066;2023-06-14T18:08:40;1.30;;;1.20;;
24729;SDS011;12832;52.392;13.066;2023-06-14T18:11:09;1.55;;;1.30;;
24729;SDS011;12832;52.392;13.066;2023-06-14T18:13:35;1.17;;;1.10;;
24729;SDS011;12832;52.392;13.066;2023-06-14T18:16:03;1.30;;;1.20;;
24729;SDS011;12832;52.392;13.066;2023-06-14T18:18:29;1.42;;;1.33;;
24729;SDS011;12832;52.392;13.066;2023-06-14T18:20:55;1.20;;;1.10;;
24729;SDS011;12832;52.392;13.066;2023-06-14T18:23:21;1.00;;;0.90;;
24729;SDS011;12832;52.392;13.066;2023-06-14T18:25:47;1.10;;;1.00;;
24729;SDS011;12832;52.392;13.066;2023-06-14T18:28:14;1.30;;;1.20;;
24729;SDS011;12832;52.392;13.066;2023-06-14T18:30:40;1.30;;;1.20;;
24729;SDS011;12832;52.392;13.066;2023-06-14T18:33:06;1.20;;;1.10;;
24729;SDS011;12832;52.392;13.066;2023-06-14T18:35:35;1.20;;;1.10;;
24729;SDS011;12832;52.392;13.066;2023-06-14T18:38:01;1.20;;;1.10;;
24729;SDS011;12832;52.392;13.066;2023-06-14T18:40:27;1.20;;;1.10;;
24729;SDS011;12832;52.392;13.066;2023-06-14T18:42:54;0.88;;;0.88;;
24729;SDS011;12832;52.392;13.066;2023-06-14T18:45:22;1.20;;;1.10;;
24729;SDS011;12832;52.392;13.066;2023-06-14T18:47:48;1.10;;;1.10;;
24729;SDS011;12832;52.392;13.066;2023-06-14T18:50:14;1.23;;;1.13;;